LFPG 251000Z 21008KT 180V320 CAVOK 29/19 Q1016 NOSIG

ElémentsDécodage
LFPG Station météo située sur l'aérodrome de PARIS Charles-de-Gaulle
251000Z émis le 25 du mois à 10h00 UTC
21008KT vent du 210°, 08 noeuds
180V320 vent de direction variable entre 180° et 320°
CAVOK Ceiling And Visibility OK
- Visibilité de 10 Km ou plus
- Pas de nuage au-dessous de 1500m ou au-dessous de l'altitude minimale du secteur la plus élevée (si>1500m) et absence de CB
- pas de temps présent significatif
29/19 température 29°C, point de rosée 19°C
 soit une humidité relative de 55%
Q1016 la pression au niveau de la mer (QNH) est de 1016 hPa
NOSIG Pas de changement significatif prévu au cours des deux heures suivant l'heure de l'observation